Estación Meteorológica Peña el Pijo (Robertgarden) [ 02/03/23 03:15:37 CET ]

Fecha Hora Presion(HPa) Temp (°C) Humedad % Rocio (°C) Viento ( m/s) Direccion Lluvia 1Hora(mm) Lluvia 24H(mm) LLuvia Total(mm)
2010-May-14 01:01:13 1004.000 3.9 87 1.9       1.03 113.96
2010-May-14 02:01:12 1003.800 3.8 89 2.1       1.03 113.96
2010-May-14 03:01:44 1002.900 3.4 89 1.7       1.03 113.96
2010-May-14 04:01:44 1002.200 3.6 90 2.1       1.03 113.96
2010-May-14 05:03:14 1002.200 4.2 91 2.9       1.03 113.96
2010-May-14 06:01:13 1002.300 4.8 92 3.6       1.03 113.96
2010-May-14 07:01:14 1002.700 4.7 87 2.7       1.03 113.96
2010-May-14 08:01:12 1002.600 5.0 86 2.8       1.03 113.96
2010-May-14 09:01:17 1003.200 3.6 85 1.3       1.03 113.96
2010-May-14 10:01:13 1003.900 3.9 87 1.9       1.03 113.96
2010-May-14 11:01:13 1003.500 8.0 81 5.0       1.03 113.96
2010-May-14 12:01:13 1003.800 6.5 79 3.1       1.03 113.96
2010-May-14 13:01:13 1004.000 6.6 74 2.3       1.03 113.96
2010-May-14 14:01:12 1004.500 9.1 68 3.5       1.03 113.96
2010-May-14 15:01:16 1004.900 11.9 53 2.6       1.03 113.96
2010-May-14 16:01:11 1005.200 8.3 62 1.4       1.03 113.96
2010-May-14 17:01:18 1005.400 10.2 58 2.3       1.03 113.96
2010-May-14 18:01:13 1005.000 9.9 51 0.2       1.03 113.96
2010-May-14 19:01:12 1005.200 11.3 39 -2.2       1.03 113.96
2010-May-14 20:01:12 1005.900 9.4 49 -0.8         113.96
2010-May-14 21:01:12 1006.700 8.4 59 0.8         113.96
2010-May-14 22:01:16 1007.400 8.1 63 1.4         113.96
2010-May-14 23:01:15 1008.300 8.1 64 1.7         113.96

Temperatura Máxima:11°    Temperatura Mínima:
Presión Máxima:1008.300 Hpa    Presión Mínima:1002.200 Hpa


Volver